Atyray, Kazakhstan

1:05 PM AQTT on October 26, 2014 (GMT +0500)
Atyrau | Change Station
CLOSE
Current Station
Airport
Location: Atyrau,
Elevation: -72 ft
Nearby Weather Stations

Elev -72 ft 47.12 °N, 51.83 °E | Updated 35 minutes ago

Mostly Cloudy
Mostly Cloudy
27 °F
Feels Like 15 °F
N
13
Wind Variable Wind from North

Today
High -- | Low -- °F
--% Chance of Precip.
Yesterday
High -- | Low -- °F
Precip. -- in
8:05 AM 6:26 PM
Waxing Crescent, 6% visible
Pressure 30.60 in
Visibility 6.2 miles
Clouds Mostly Cloudy 3300 ft
Windchill 15 °F
Dew Point 14 °F
Humidity 59%
Rainfall 0.00 in
Snow Depth Not available.
UV 2 out of 12
Pollen Not available.
Air Quality Not available.
Flu Activity Not available.
METAR UATG 260730Z 36006MPS 9999 BKN033CB M03/M10 Q1036 R32/CLRD70 NOSIG RMK QFE779/1039

More Conditions Fewer Conditions

Pressure 30.60 in
Visibility 6.2 miles
Clouds Mostly Cloudy 3300 ft
Windchill 15 °F
Dew Point 14 °F
Humidity 59%
Rainfall 0.00 in
Snow Depth Not available.
UV 2 out of 12
Pollen Not available.
Air Quality Not available.
Flu Activity Not available.
METAR UATG 260730Z 36006MPS 9999 BKN033CB M03/M10 Q1036 R32/CLRD70 NOSIG RMK QFE779/1039

More Conditions Fewer Conditions

10-Day Weather Forecast

Almanac

Astronomy

Oct. 26, 2014 Rise Set
Actual Time 8:05 AM AQTT 6:26 PM AQTT
Civil Twilight 7:34 AM AQTT 6:57 PM AQTT
Nautical Twilight 6:58 AM AQTT 7:33 PM AQTT
Astronomical Twilight 6:23 AM AQTT 8:08 PM AQTT
Moon 10:27 AM AQTT 8:10 PM AQTT
Length of Visible Light 11h 23m
Length of Day
10h 20m
Tomorrow will be 3m 7s shorter.
Waxing Crescent, 6% of the Moon is Illuminated
Today
Waxing Crescent
Oct 30
First Quarter
Nov 6
Full
Nov 14
Last Quarter
Nov 22
New

Yesterday's Extremes

Country Highs Country Lows

Community

WunderPhotos

Upload Photos

1,765,115 photos uploaded!

Nearby

Snow Depth

Not available.

Earthquake Activity

City Distance Mag. Time & Date
No recent earthquake activity has been reported nearby.
Minimum magnitude displayed is 2.5.

Coastal Water Temperatures

Place Temperature
No Stations Reporting

Nearby Weather Stations